Harmony Of The Seas — C6BX8 — position and weather

sailwx.info

Track history (hours):
 
Tides and Currents Weather Stations Pressure Air Temp Water Temp Dewpoint Dewpoint Depression Visibility Wind Speed Wind Dir Waves Ship Positions

Harmony Of The Seas

Last reported at 2017-Oct-15 00:21 UTC. Time now 2017-Oct-17 04:26 UTC.
Position N 25°15' W 079°44'.

Length 362 m; draft 9.3 m.

Type: Passenger vessel. MMSI: 311000396.

Date/timePositionNaut miles runAvg speedWind from/ knotsBaromVisibWave heightAir tempDewpointWater temp
2017-Oct-15 00:21N 25°15' W 079°44'617.2
2017-Oct-15 00:01N 25°21' W 079°46'816.4
2017-Oct-14 23:31N 25°29' W 079°48'815.7
2017-Oct-14 23:01N 25°36' W 079°51'816.1
2017-Oct-14 22:31N 25°44' W 079°53'816.1
2017-Oct-14 22:01N 25°52' W 079°56'816.2
2017-Oct-14 21:31N 25°60' W 079°57'815.4
2017-Oct-14 21:00N 26°05' W 080°04'3 6.2
2017-Oct-14 20:30N 26°05' W 080°07'0 0.1
2017-Oct-14 19:55N 26°05' W 080°07'0 0.0
2017-Oct-14 19:25N 26°05' W 080°07'0 0.0
2017-Oct-14 18:58N 26°05' W 080°07'0 0.0
2017-Oct-14 18:19N 26°05' W 080°07'0 0.0
2017-Oct-14 17:58N 26°05' W 080°07'0 0.0
2017-Oct-14 17:28N 26°05' W 080°07'0 0.0
2017-Oct-14 16:52N 26°05' W 080°07'0 0.0
2017-Oct-14 16:25N 26°05' W 080°07'0 0.0
2017-Oct-14 15:58N 26°05' W 080°07'0 0.0
2017-Oct-14 15:25N 26°05' W 080°07'0 0.0
2017-Oct-14 14:58N 26°05' W 080°07'0 0.0
2017-Oct-14 14:25N 26°05' W 080°07'0 0.0
2017-Oct-14 13:55N 26°05' W 080°07'0 0.0
2017-Oct-14 13:25N 26°05' W 080°07'0 0.0
2017-Oct-14 12:55N 26°05' W 080°07'0 0.0
2017-Oct-14 12:25N 26°05' W 080°07'0 0.0
2017-Oct-14 11:55N 26°05' W 080°07'0 0.0
2017-Oct-14 11:28N 26°05' W 080°07'0 0.0
2017-Oct-14 10:58N 26°05' W 080°07'0 0.0
2017-Oct-14 10:28N 26°05' W 080°07'0 0.0
2017-Oct-14 09:58N 26°05' W 080°07'0 0.0
2017-Oct-14 09:30N 26°05' W 080°07'3 6.6
2017-Oct-14 09:00N 26°06' W 080°04'5 9.8
2017-Oct-14 08:30N 26°03' W 079°59'611.0
2017-Oct-14 08:00N 25°58' W 079°58'611.4
2017-Oct-14 07:31N 25°52' W 079°58'612.0
2017-Oct-14 07:00N 25°46' W 079°57'611.5
2017-Oct-14 06:30N 25°40' W 079°57'611.4
2017-Oct-14 06:01N 25°35' W 079°57'611.4
2017-Oct-14 05:31N 25°29' W 079°57'611.0
2017-Oct-14 05:00N 25°23' W 079°58'611.4
2017-Oct-14 04:30N 25°18' W 080°01'611.3
2017-Oct-14 04:00N 25°13' W 080°03'  
2017-Oct-11 00:00N 20°24' W 087°04'510.2
2017-Oct-10 23:30N 20°28' W 087°01'3 5.2
2017-Oct-10 22:58N 20°29' W 086°59'0 0.0
2017-Oct-10 22:28N 20°29' W 086°59'0 0.0
2017-Oct-10 21:58N 20°29' W 086°59'0 0.0
2017-Oct-10 21:29N 20°29' W 086°59'0 0.0
2017-Oct-10 20:59N 20°29' W 086°59'0 0.0
2017-Oct-10 20:29N 20°29' W 086°59'0 0.0
2017-Oct-10 19:56N 20°29' W 086°59'0 0.0
2017-Oct-10 19:29N 20°29' W 086°59'0 0.0
2017-Oct-10 18:59N 20°29' W 086°59'0 0.0
2017-Oct-10 18:29N 20°29' W 086°59'0 0.0
2017-Oct-10 17:59N 20°29' W 086°59'0 0.0
2017-Oct-10 17:29N 20°29' W 086°59'0 0.0
2017-Oct-10 16:59N 20°29' W 086°59'0 0.0
2017-Oct-10 16:29N 20°29' W 086°59'0 0.0
2017-Oct-10 15:59N 20°29' W 086°59'0 0.0
2017-Oct-10 15:29N 20°29' W 086°59'0 0.0
2017-Oct-10 14:59N 20°29' W 086°59'0 0.0
2017-Oct-10 13:59N 20°29' W 086°59'0 0.0
2017-Oct-10 13:29N 20°29' W 086°59'0 0.0
2017-Oct-10 12:59N 20°29' W 086°59'0 0.0
2017-Oct-10 12:29N 20°29' W 086°59'0 0.0
2017-Oct-10 11:59N 20°29' W 086°59'0 0.0
2017-Oct-10 11:29N 20°29' W 086°59'1 3.0
2017-Oct-10 11:01N 20°30' W 086°59'612.3
2017-Oct-10 10:30N 20°36' W 086°56'713.8
2017-Oct-10 10:00N 20°42' W 086°53'47118.0
2017-Oct-09 07:50N 25°11' W 079°53'619.1
2017-Oct-09 07:29N 25°17' W 079°50'919.0
2017-Oct-09 07:00N 25°26' W 079°46'918.8
2017-Oct-09 06:30N 25°34' W 079°43'918.7
2017-Oct-09 06:00N 25°43' W 079°38'918.6
2017-Oct-09 05:30N 25°52' W 079°34'30 1.1
2017-Oct-08 01:09N 26°12' W 079°10'212.7
2017-Oct-08 01:00N 26°13' W 079°12'612.8
2017-Oct-08 00:30N 26°13' W 079°19'612.5
2017-Oct-08 00:00N 26°12' W 079°26'612.6
2017-Oct-07 23:30N 26°11' W 079°33'612.5
2017-Oct-07 23:00N 26°10' W 079°40'612.4
2017-Oct-07 22:30N 26°09' W 079°47'612.3
2017-Oct-07 22:01N 26°08' W 079°53'612.5
2017-Oct-07 21:31N 26°07' W 080°00'611.1
2017-Oct-07 21:00N 26°06' W 080°06'1 1.7
2017-Oct-07 20:26N 26°05' W 080°07'0 0.0
2017-Oct-07 19:59N 26°05' W 080°07'0 0.0
2017-Oct-07 19:29N 26°05' W 080°07'0 0.0
2017-Oct-07 18:59N 26°05' W 080°07'0 0.0
2017-Oct-07 18:29N 26°05' W 080°07'0 0.0
2017-Oct-07 17:59N 26°05' W 080°07'0 0.0
2017-Oct-07 17:29N 26°05' W 080°07'0 0.0
2017-Oct-07 16:59N 26°05' W 080°07'0 0.0
2017-Oct-07 16:29N 26°05' W 080°07'0 0.0
2017-Oct-07 15:56N 26°05' W 080°07'0 0.0
2017-Oct-07 15:29N 26°05' W 080°07'0 0.0
2017-Oct-07 14:59N 26°05' W 080°07'0 0.0
2017-Oct-07 14:29N 26°05' W 080°07'0 0.0
2017-Oct-07 13:59N 26°05' W 080°07'0 0.0
2017-Oct-07 13:29N 26°05' W 080°07'0 0.0
2017-Oct-07 12:59N 26°05' W 080°07'0 0.0
2017-Oct-07 12:29N 26°05' W 080°07'0 0.0
2017-Oct-07 11:59N 26°05' W 080°07'0 0.0
2017-Oct-07 11:26N 26°05' W 080°07'0 0.0
2017-Oct-07 10:59N 26°05' W 080°07'0 0.0
2017-Oct-07 10:29N 26°05' W 080°07'0 0.0
2017-Oct-07 09:59N 26°05' W 080°07'0 0.2
2017-Oct-07 09:30N 26°05' W 080°07'4 8.2
2017-Oct-07 09:00N 26°05' W 080°03'510.6
2017-Oct-07 08:30N 26°03' W 079°57'917.2
2017-Oct-07 08:00N 25°55' W 079°53'917.9
2017-Oct-07 07:31N 25°47' W 079°49'918.1
2017-Oct-07 07:00N 25°38' W 079°50'918.0
2017-Oct-07 06:30N 25°29' W 079°50'918.2
2017-Oct-07 06:00N 25°20' W 079°51'918.1
2017-Oct-07 05:30N 25°11' W 079°54'47015.9
2017-Oct-05 23:58N 20°42' W 086°53'817.4
2017-Oct-05 23:31N 20°36' W 086°58'713.1
2017-Oct-05 23:01N 20°29' W 086°59'0 0.7
2017-Oct-05 22:29N 20°29' W 086°59'0 0.0
2017-Oct-05 21:58N 20°29' W 086°59'0 0.0
2017-Oct-05 21:26N 20°29' W 086°59'0 0.0
2017-Oct-05 20:56N 20°29' W 086°59'0 0.0
2017-Oct-05 20:26N 20°29' W 086°59'0 0.0
2017-Oct-05 19:56N 20°29' W 086°59'0 0.0
2017-Oct-05 19:26N 20°29' W 086°59'0 0.0
2017-Oct-05 18:56N 20°29' W 086°59'0 0.0
2017-Oct-05 18:26N 20°29' W 086°59'0 0.0
2017-Oct-05 17:56N 20°29' W 086°59'0 0.0
2017-Oct-05 17:26N 20°29' W 086°59'0 0.0
2017-Oct-05 16:56N 20°29' W 086°59'0 0.0
2017-Oct-05 15:26N 20°29' W 086°59'0 0.0
2017-Oct-05 14:56N 20°29' W 086°59'0 0.0
2017-Oct-05 14:20N 20°29' W 086°59'0 0.0
2017-Oct-05 13:56N 20°29' W 086°59'0 0.0
2017-Oct-05 13:26N 20°29' W 086°59'0 0.0
2017-Oct-05 12:50N 20°29' W 086°59'0 0.0
2017-Oct-05 12:26N 20°29' W 086°59'0 0.0
2017-Oct-05 11:56N 20°29' W 086°59'0 0.0
2017-Oct-05 11:30N 20°29' W 086°59'  
Track history (hours):
 
Tides and Currents Weather Stations Pressure Air Temp Water Temp Dewpoint Dewpoint Depression Visibility Wind Speed Wind Dir Waves Ship Positions

Harmony Of The Seas

Last reported at 2017-Oct-15 00:21 UTC. Time now 2017-Oct-17 04:26 UTC.
Position N 25°15' W 079°44'.

Length 362 m; draft 9.3 m.

Type: Passenger vessel. MMSI: 311000396.

Date/timePositionNaut miles runAvg speedWind from/ knotsBaromVisibWave heightAir tempDewpointWater temp
2017-Oct-15 00:21N 25°15' W 079°44'617.2
2017-Oct-15 00:01N 25°21' W 079°46'816.4
2017-Oct-14 23:31N 25°29' W 079°48'815.7
2017-Oct-14 23:01N 25°36' W 079°51'816.1
2017-Oct-14 22:31N 25°44' W 079°53'816.1
2017-Oct-14 22:01N 25°52' W 079°56'816.2
2017-Oct-14 21:31N 25°60' W 079°57'815.4
2017-Oct-14 21:00N 26°05' W 080°04'3 6.2
2017-Oct-14 20:30N 26°05' W 080°07'0 0.1
2017-Oct-14 19:55N 26°05' W 080°07'0 0.0
2017-Oct-14 19:25N 26°05' W 080°07'0 0.0
2017-Oct-14 18:58N 26°05' W 080°07'0 0.0
2017-Oct-14 18:19N 26°05' W 080°07'0 0.0
2017-Oct-14 17:58N 26°05' W 080°07'0 0.0
2017-Oct-14 17:28N 26°05' W 080°07'0 0.0
2017-Oct-14 16:52N 26°05' W 080°07'0 0.0
2017-Oct-14 16:25N 26°05' W 080°07'0 0.0
2017-Oct-14 15:58N 26°05' W 080°07'0 0.0
2017-Oct-14 15:25N 26°05' W 080°07'0 0.0
2017-Oct-14 14:58N 26°05' W 080°07'0 0.0
2017-Oct-14 14:25N 26°05' W 080°07'0 0.0
2017-Oct-14 13:55N 26°05' W 080°07'0 0.0
2017-Oct-14 13:25N 26°05' W 080°07'0 0.0
2017-Oct-14 12:55N 26°05' W 080°07'0 0.0
2017-Oct-14 12:25N 26°05' W 080°07'0 0.0
2017-Oct-14 11:55N 26°05' W 080°07'0 0.0
2017-Oct-14 11:28N 26°05' W 080°07'0 0.0
2017-Oct-14 10:58N 26°05' W 080°07'0 0.0
2017-Oct-14 10:28N 26°05' W 080°07'0 0.0
2017-Oct-14 09:58N 26°05' W 080°07'0 0.0
2017-Oct-14 09:30N 26°05' W 080°07'3 6.6
2017-Oct-14 09:00N 26°06' W 080°04'5 9.8
2017-Oct-14 08:30N 26°03' W 079°59'611.0
2017-Oct-14 08:00N 25°58' W 079°58'611.4
2017-Oct-14 07:31N 25°52' W 079°58'612.0
2017-Oct-14 07:00N 25°46' W 079°57'611.5
2017-Oct-14 06:30N 25°40' W 079°57'611.4
2017-Oct-14 06:01N 25°35' W 079°57'611.4
2017-Oct-14 05:31N 25°29' W 079°57'611.0
2017-Oct-14 05:00N 25°23' W 079°58'611.4
2017-Oct-14 04:30N 25°18' W 080°01'611.3
2017-Oct-14 04:00N 25°13' W 080°03'  
2017-Oct-11 00:00N 20°24' W 087°04'510.2
2017-Oct-10 23:30N 20°28' W 087°01'3 5.2
2017-Oct-10 22:58N 20°29' W 086°59'0 0.0
2017-Oct-10 22:28N 20°29' W 086°59'0 0.0
2017-Oct-10 21:58N 20°29' W 086°59'0 0.0
2017-Oct-10 21:29N 20°29' W 086°59'0 0.0
2017-Oct-10 20:59N 20°29' W 086°59'0 0.0
2017-Oct-10 20:29N 20°29' W 086°59'0 0.0
2017-Oct-10 19:56N 20°29' W 086°59'0 0.0
2017-Oct-10 19:29N 20°29' W 086°59'0 0.0
2017-Oct-10 18:59N 20°29' W 086°59'0 0.0
2017-Oct-10 18:29N 20°29' W 086°59'0 0.0
2017-Oct-10 17:59N 20°29' W 086°59'0 0.0
2017-Oct-10 17:29N 20°29' W 086°59'0 0.0
2017-Oct-10 16:59N 20°29' W 086°59'0 0.0
2017-Oct-10 16:29N 20°29' W 086°59'0 0.0
2017-Oct-10 15:59N 20°29' W 086°59'0 0.0
2017-Oct-10 15:29N 20°29' W 086°59'0 0.0
2017-Oct-10 14:59N 20°29' W 086°59'0 0.0
2017-Oct-10 13:59N 20°29' W 086°59'0 0.0
2017-Oct-10 13:29N 20°29' W 086°59'0 0.0
2017-Oct-10 12:59N 20°29' W 086°59'0 0.0
2017-Oct-10 12:29N 20°29' W 086°59'0 0.0
2017-Oct-10 11:59N 20°29' W 086°59'0 0.0
2017-Oct-10 11:29N 20°29' W 086°59'1 3.0
2017-Oct-10 11:01N 20°30' W 086°59'612.3
2017-Oct-10 10:30N 20°36' W 086°56'713.8
2017-Oct-10 10:00N 20°42' W 086°53'47118.0
2017-Oct-09 07:50N 25°11' W 079°53'619.1
2017-Oct-09 07:29N 25°17' W 079°50'919.0
2017-Oct-09 07:00N 25°26' W 079°46'918.8
2017-Oct-09 06:30N 25°34' W 079°43'918.7
2017-Oct-09 06:00N 25°43' W 079°38'918.6
2017-Oct-09 05:30N 25°52' W 079°34'30 1.1
2017-Oct-08 01:09N 26°12' W 079°10'212.7
2017-Oct-08 01:00N 26°13' W 079°12'612.8
2017-Oct-08 00:30N 26°13' W 079°19'612.5
2017-Oct-08 00:00N 26°12' W 079°26'612.6
2017-Oct-07 23:30N 26°11' W 079°33'612.5
2017-Oct-07 23:00N 26°10' W 079°40'612.4
2017-Oct-07 22:30N 26°09' W 079°47'612.3
2017-Oct-07 22:01N 26°08' W 079°53'612.5
2017-Oct-07 21:31N 26°07' W 080°00'611.1
2017-Oct-07 21:00N 26°06' W 080°06'1 1.7
2017-Oct-07 20:26N 26°05' W 080°07'0 0.0
2017-Oct-07 19:59N 26°05' W 080°07'0 0.0
2017-Oct-07 19:29N 26°05' W 080°07'0 0.0
2017-Oct-07 18:59N 26°05' W 080°07'0 0.0
2017-Oct-07 18:29N 26°05' W 080°07'0 0.0
2017-Oct-07 17:59N 26°05' W 080°07'0 0.0
2017-Oct-07 17:29N 26°05' W 080°07'0 0.0
2017-Oct-07 16:59N 26°05' W 080°07'0 0.0
2017-Oct-07 16:29N 26°05' W 080°07'0 0.0
2017-Oct-07 15:56N 26°05' W 080°07'0 0.0
2017-Oct-07 15:29N 26°05' W 080°07'0 0.0
2017-Oct-07 14:59N 26°05' W 080°07'0 0.0
2017-Oct-07 14:29N 26°05' W 080°07'0 0.0
2017-Oct-07 13:59N 26°05' W 080°07'0 0.0
2017-Oct-07 13:29N 26°05' W 080°07'0 0.0
2017-Oct-07 12:59N 26°05' W 080°07'0 0.0
2017-Oct-07 12:29N 26°05' W 080°07'0 0.0
2017-Oct-07 11:59N 26°05' W 080°07'0 0.0
2017-Oct-07 11:26N 26°05' W 080°07'0 0.0
2017-Oct-07 10:59N 26°05' W 080°07'0 0.0
2017-Oct-07 10:29N 26°05' W 080°07'0 0.0
2017-Oct-07 09:59N 26°05' W 080°07'0 0.2
2017-Oct-07 09:30N 26°05' W 080°07'4 8.2
2017-Oct-07 09:00N 26°05' W 080°03'510.6
2017-Oct-07 08:30N 26°03' W 079°57'917.2
2017-Oct-07 08:00N 25°55' W 079°53'917.9
2017-Oct-07 07:31N 25°47' W 079°49'918.1
2017-Oct-07 07:00N 25°38' W 079°50'918.0
2017-Oct-07 06:30N 25°29' W 079°50'918.2
2017-Oct-07 06:00N 25°20' W 079°51'918.1
2017-Oct-07 05:30N 25°11' W 079°54'47015.9
2017-Oct-05 23:58N 20°42' W 086°53'817.4
2017-Oct-05 23:31N 20°36' W 086°58'713.1
2017-Oct-05 23:01N 20°29' W 086°59'0 0.7
2017-Oct-05 22:29N 20°29' W 086°59'0 0.0
2017-Oct-05 21:58N 20°29' W 086°59'0 0.0
2017-Oct-05 21:26N 20°29' W 086°59'0 0.0
2017-Oct-05 20:56N 20°29' W 086°59'0 0.0
2017-Oct-05 20:26N 20°29' W 086°59'0 0.0
2017-Oct-05 19:56N 20°29' W 086°59'0 0.0
2017-Oct-05 19:26N 20°29' W 086°59'0 0.0
2017-Oct-05 18:56N 20°29' W 086°59'0 0.0
2017-Oct-05 18:26N 20°29' W 086°59'0 0.0
2017-Oct-05 17:56N 20°29' W 086°59'0 0.0
2017-Oct-05 17:26N 20°29' W 086°59'0 0.0
2017-Oct-05 16:56N 20°29' W 086°59'0 0.0
2017-Oct-05 15:26N 20°29' W 086°59'0 0.0
2017-Oct-05 14:56N 20°29' W 086°59'0 0.0
2017-Oct-05 14:20N 20°29' W 086°59'0 0.0
2017-Oct-05 13:56N 20°29' W 086°59'0 0.0
2017-Oct-05 13:26N 20°29' W 086°59'0 0.0
2017-Oct-05 12:50N 20°29' W 086°59'0 0.0
2017-Oct-05 12:26N 20°29' W 086°59'0 0.0
2017-Oct-05 11:56N 20°29' W 086°59'0 0.0
2017-Oct-05 11:30N 20°29' W 086°59'  

Dump ship's entire track history